Thursday, August 24, 2017, 1:05 AM EDT
Back to Local

KBGR, Bangor Int'l Airport

Location: Bangor, ME, United States Lat: 44.8
Local Time: 1:05 AM EDT ( 5:05 GMT) Lon: -68.817
Time Zone: US/Eastern Elev: 193 ft

Show me the last for .
Show Decoded

2017-08-24 00:53 METAR KBGR 240453Z 20003KT 10SM CLR 14/11 A2980 RMK AO2 SLP089 T01390111
                 402780133 $ =
2017-08-23 23:53 METAR KBGR 240353Z 23003KT 10SM CLR 14/11 A2980 RMK AO2 SLP089 T01440106 $ =
2017-08-23 22:53 METAR KBGR 240253Z 22004KT 10SM CLR 16/11 A2979 RMK AO2 SLP084 T01610111 51014 $
                 =
2017-08-23 21:53 METAR KBGR 240153Z 25004KT 10SM CLR 18/11 A2978 RMK AO2 SLP079 T01780111 =
2017-08-23 20:53 METAR KBGR 240053Z 27003KT 10SM CLR 18/11 A2976 RMK AO2 SLP076 T01780111 =
2017-08-23 19:53 METAR KBGR 232353Z 28003KT 10SM FEW200 21/10 A2975 RMK AO2 SLP070 T02110100
                 10278 20211 53020 =
2017-08-23 18:53 METAR KBGR 232253Z 30007G16KT 10SM FEW060 SCT200 24/10 A2973 RMK AO2 SLP063
                 T02390100 =
2017-08-23 17:53 METAR KBGR 232153Z 28007KT 240V300 10SM FEW060 SCT200 26/09 A2971 RMK AO2 SLP055
                 T02560094 =
2017-08-23 16:53 METAR KBGR 232053Z 28009KT 10SM FEW060 SCT200 26/10 A2969 RMK AO2 SLP049
                 T02610100 53005 =
2017-08-23 15:53 METAR KBGR 231953Z 28008KT 10SM FEW055 SCT200 27/11 A2968 RMK AO2 SLP045
                 T02720106 =
2017-08-23 14:53 METAR KBGR 231853Z 25008G16KT 230V290 10SM BKN055 BKN200 28/12 A2967 RMK AO2
                 SLP043 T02780122 =
2017-08-23 13:53 METAR KBGR 231753Z 26009G16KT 10SM BKN048 26/11 A2967 RMK AO2 SLP044 60000
                 T02560111 10272 20222 51010 =
2017-08-23 12:53 METAR KBGR 231653Z 27010G17KT 10SM BKN042 27/13 A2966 RMK AO2 SLP041 T02670133 =
2017-08-23 11:53 METAR KBGR 231553Z VRB06G14KT 10SM FEW025 SCT035CB BKN050 24/17 A2966 RMK AO2
                 WSHFT 1512 RAB18E25 SLP040 CB OHD MOV SE P0000 T02440172 =
2017-08-23 11:25 METAR KBGR 231525Z 30013G20KT 270V330 10SM SCT035CB BKN045 BKN055 25/18 A2966
                 RMK AO2 WSHFT 1511 RAB18E25 CB OHD MOV SE P0000 T02500183 =
2017-08-23 10:53 METAR KBGR 231453Z 18012KT 10SM FEW029 SCT095 BKN110 26/20 A2964 RMK AO2 SLP034
                 T02610200 50001 =
2017-08-23 09:53 METAR KBGR 231353Z 22008KT 10SM FEW017 FEW023 BKN100 26/19 A2965 RMK AO2 SLP035
                 T02560194 =
2017-08-23 08:53 METAR KBGR 231253Z 19007KT 9SM SCT014 BKN100 23/20 A2964 RMK AO2 SLP035
                 T02330200 =
2017-08-23 08:50 METAR KBGR 231250Z 20009KT 9SM SCT014 BKN100 23/20 A2964 RMK AO2 =
2017-08-23 07:53 METAR KBGR 231153Z 18008KT 8SM BKN014 BKN080 22/19 A2963 RMK AO2 SLP032 60001
                 70001 T02220194 10222 20206 51015 =
2017-08-23 06:53 METAR KBGR 231053Z 17006KT 8SM BKN011 OVC080 21/19 A2962 RMK AO2 SLP028
                 T02110194 =
2017-08-23 06:36 METAR KBGR 231036Z 19007KT 8SM BKN011 OVC080 21/19 A2962 RMK AO2 T02110194 =
2017-08-23 05:53 METAR KBGR 230953Z 19009KT 10SM BKN015 OVC080 21/19 A2961 RMK AO2 SLP024
                 T02060194 =
2017-08-23 04:53 METAR KBGR 230853Z 20007KT 10SM SCT120 21/19 A2959 RMK AO2 RAB0757E08 SLP016
                 P0000 60001 T02110194 58003 =
2017-08-23 03:53 METAR KBGR 230753Z 19009KT 10SM FEW010 BKN090 BKN110 22/20 A2961 RMK AO2
                 RAB21E34 SLP021 P0000 T02170200 =
2017-08-23 03:01 METAR KBGR 230701Z 19008KT 5SM BR SCT011 SCT080 BKN110 22/20 A2960 RMK AO2
                 T02170200 =
2017-08-23 02:53 METAR KBGR 230653Z 18008KT 6SM BR BKN011 BKN120 22/21 A2959 RMK AO2 RAE41 SLP017
                 P0001 T02170206 =
2017-08-23 02:43 METAR KBGR 230643Z 19007KT 6SM BR SCT010 BKN014 BKN120 22/21 A2961 RMK AO2 RAE41
                 P0001 T02170206 =
2017-08-23 02:17 METAR KBGR 230617Z 19011KT 5SM -RA BR SCT012 BKN120 22/21 A2960 RMK AO2 P0000
                 T02170206 =
2017-08-23 01:53 METAR KBGR 230553Z 19010KT 5SM -RA BR BKN013 BKN120 22/21 A2960 RMK AO2
                 RAB04E33B52 SLP019 P0000 60000 T02220206 10222 20217 58007 =
2017-08-23 01:27 METAR KBGR 230527Z 17012KT 5SM -RA BR FEW014 BKN120 22/20 A2960 RMK AO2 RAB04
                 P0000 T02170200 =
2017-08-23 01:11 METAR KBGR 230511Z 18012KT 4SM -RA BR SCT006 BKN014 22/20 A2961 RMK AO2 RAB04
                 P0000 T02170200 =

Support USWX by starting your Amazon purchase here.